Madsen, Canada
Current Conditions -  °F | °C
As of 5:00 AM on Friday 24 Oct 2014 (Local Time) from CYRL Reporting Station
Overcast Overcast  
Wind Chill: 42°   Ceiling: 8000
Heat Index: 45°   Visibility: 15mi
Dew Point: 43°   Wind: 5mph
Humidity: 93%   Direction: 120°ESE
Pressure: 29.69"   Gusts: NA
Location:  50.97°N, 93.92°W
Report Text: CYRL 241000Z 12004KT 15SM OVC080 07/06 A2969 RMK AS8 SLP065
Loading
Personal Weather Stations






























Interactive Weather Map
Tropical Storm Tracking
New forecast layout! Learn more

10-Day Weather Forecast

Advertisements
Track Severe Weather on mobile